createdAt,value
2023-05-05T00:32:27.717Z,5.2
2023-05-05T01:02:45.249Z,5.1
2023-05-05T01:33:02.141Z,5.2
2023-05-05T02:03:21.184Z,5.1
2023-05-05T02:33:38.145Z,5
2023-05-05T03:03:57.726Z,4.9
2023-05-05T03:34:18.784Z,5.4
2023-05-05T04:04:35.645Z,5.8
2023-05-05T04:34:55.782Z,6.6
2023-05-05T05:05:16.370Z,6.4
2023-05-05T05:35:37.844Z,6.3
2023-05-05T06:05:58.029Z,7.7
2023-05-05T06:36:27.481Z,7.4
2023-05-05T07:06:52.349Z,8.4
2023-05-05T07:37:08.809Z,7.4
2023-05-05T08:07:36.507Z,6
2023-05-05T08:38:03.028Z,3.3
2023-05-05T09:08:21.935Z,2.1
2023-05-05T09:38:40.316Z,1.9
2023-05-05T10:09:01.944Z,1.8
2023-05-05T10:39:24.721Z,1.3
2023-05-05T11:09:45.362Z,2.1
2023-05-05T11:40:07.562Z,1.3
2023-05-05T12:10:27.315Z,1.2
2023-05-05T12:40:31.189Z,1.5
2023-05-05T13:10:39.392Z,1.3
2023-05-05T13:40:54.709Z,1.1
2023-05-05T14:10:58.842Z,1.3
2023-05-05T14:41:08.010Z,1.1
2023-05-05T15:11:16.126Z,2.2
2023-05-05T15:41:33.807Z,1.5
2023-05-05T16:11:52.980Z,1.6
2023-05-05T16:42:10.044Z,1.4
2023-05-05T17:12:26.891Z,1.5
2023-05-05T17:42:44.029Z,1.5
2023-05-05T18:13:03.492Z,1.5
2023-05-05T18:43:20.500Z,1.6
2023-05-05T19:43:55.480Z,1.2
2023-05-05T20:14:11.801Z,1.7
2023-05-05T20:44:28.545Z,1.3
2023-05-05T21:14:51.771Z,1.3
2023-05-05T21:45:10.202Z,4.2
2023-05-05T22:15:32.627Z,1.3
2023-05-05T22:45:46.868Z,1.5
2023-05-05T23:16:08.047Z,1.4
2023-05-05T23:46:26.084Z,1.3
